CHICAGO AURORA MUNICIPAL, IL, United States (KARR) 41-46N 088-28W 215M
Wind: from the SSE (150 degrees) at 8 MPH (7 KT):0
Visibility: 7 mile(s):0
Sky conditions: overcast
Weather: light rain
Precipitation last hour: 0.03 inches
Temperature: 71.1 F (21.7 C)
Dew Point: 70.0 F (21.1 C)
Relative Humidity: 96%
Pressure (altimeter): 29.84 in. Hg (1010 hPa)
ob: KARR 251012Z AUTO 15007KT 7SM -RA OVC008 22/21 A2984 RMK AO2 P0003 T02170211
Raw METAR:KARR 251012Z AUTO 15007KT 7SM -RA OVC008 22/21 A2984 RMK AO2 P0003 T02170211
cycle: 10
Back to top

CHICAGO/WEST CH DUPAGE, IL, United States (KDPA) 41-54N 88-15W 230M
Wind: from the SE (140 degrees) at 10 MPH (9 KT):0
Visibility: 7 mile(s):0
Sky conditions: overcast
Weather: light rain
Precipitation last hour: 0.06 inches
Temperature: 71.1 F (21.7 C)
Dew Point: 69.1 F (20.6 C)
Relative Humidity: 93%
Pressure (altimeter): 29.84 in. Hg (1010 hPa)
ob: KDPA 251029Z 14009KT 7SM -RA OVC009 22/21 A2984 RMK AO2 CIG 007V013 P0006 T02170206
Raw METAR:KDPA 251029Z 14009KT 7SM -RA OVC009 22/21 A2984 RMK AO2 CIG 007V013 P0006 T02170206
cycle: 10
Back to top

De Kalb, De Kalb Taylor Municipal Airport, IL, United States (KDKB) 41-55-55N 088-42-30W
Wind: from the SE (140 degrees) at 10 MPH (9 KT):0
Visibility: 5 mile(s):0
Sky conditions: overcast
Weather: light rain; Lightning observed
Precipitation last hour: 0.02 inches
Temperature: 70.2 F (21.2 C)
Dew Point: 70.2 F (21.2 C)
Relative Humidity: 100%
Pressure (altimeter): 29.84 in. Hg (1010 hPa)
ob: KDKB 251015Z AUTO 14009KT 5SM -RA OVC002 21/21 A2984 RMK AO2 LTG DSNT E P0002 T02120212
Raw METAR:KDKB 251015Z AUTO 14009KT 5SM -RA OVC002 21/21 A2984 RMK AO2 LTG DSNT E P0002 T02120212
cycle: 10
Back to top

Joliet, Joliet Regional Airport, IL, United States (KJOT) 41-31-05N 088-10-31W
Wind: from the SSE (150 degrees) at 6 MPH (5 KT):0
Visibility: 7 mile(s):0
Sky conditions: mostly cloudy
Weather: light rain
Precipitation last hour: 0.01 inches
Temperature: 70.7 F (21.5 C)
Dew Point: 68.9 F (20.5 C)
Relative Humidity: 94%
Pressure (altimeter): 29.85 in. Hg (1010 hPa)
ob: KJOT 251015Z AUTO 15005KT 7SM -RA SCT085 BKN120 22/21 A2985 RMK AO2 P0001 T02150205
Raw METAR:KJOT 251015Z AUTO 15005KT 7SM -RA SCT085 BKN120 22/21 A2985 RMK AO2 P0001 T02150205
cycle: 10
Back to top

Kankakee, Greater Kankakee Airport, IL, United States (KIKK) 41-04-17N 087-50-47W
Wind: from the S (170 degrees) at 10 MPH (9 KT):0
Visibility: 10 mile(s):0
Sky conditions: overcast
Weather: with thunder in the vicinity; Lightning observed
Precipitation last hour: 0.01 inches
Temperature: 71 F (22 C)
Dew Point: 69 F (21 C)
Relative Humidity: 94%
Pressure (altimeter): 29.89 in. Hg (1012 hPa)
ob: KIKK 251018Z AUTO 17009KT 10SM VCTSMM SCT028 BKN032 OVC070 22/21 A2989 RMK AO2 LTG DSNT NE THRU SE P0001
Raw METAR:KIKK 251018Z AUTO 17009KT 10SM VCTSMM SCT028 BKN032 OVC070 22/21 A2989 RMK AO2 LTG DSNT NE THRU SE P0001
cycle: 10
Back to top

Morris, Morris Municipal-James R Washburn Field Airport, IL, United States (KC09) 41-25-31N 088-25-07W
Wind: from the SE (130 degrees) at 8 MPH (7 KT):0
Visibility: 7 mile(s):0
Sky conditions: partly cloudy
Weather: light drizzle
Precipitation last hour: 0.01 inches
Temperature: 70.7 F (21.5 C)
Dew Point: 70.2 F (21.2 C)
Relative Humidity: 98%
Pressure (altimeter): 29.81 in. Hg (1009 hPa)
ob: KC09 251035Z AUTO 13007KT 7SM -DZ SCT070 SCT120 22/21 A2981 RMK AO2 P0001 T02150212
Raw METAR:KC09 251035Z AUTO 13007KT 7SM -DZ SCT070 SCT120 22/21 A2981 RMK AO2 P0001 T02150212
cycle: 10
Back to top

Peru, Illinois Valley Regional-Walter A Duncan Field Airport, IL, United States (KVYS) 41-21-07N 089-09-11W
Wind: from the SSE (160 degrees) at 7 MPH (6 KT):0
Visibility: 7 mile(s):0
Sky conditions: overcast
Weather: light rain; Lightning observed
Pressure (altimeter): 29.81 in. Hg (1009 hPa)
ob: KVYS 251015Z AUTO 16006KT 7SM -RA SCT003 SCT026 OVC110 A2981 RMK AO2 LTG DSNT NE
Raw METAR:KVYS 251015Z AUTO 16006KT 7SM -RA SCT003 SCT026 OVC110 A2981 RMK AO2 LTG DSNT NE
cycle: 10
Back to top

Rochelle, Rochelle Municipal-Koritz Field Airport, IL, United States (KRPJ) 41-53-35N 089-04-42W
Wind: from the ESE (110 degrees) at 7 MPH (6 KT):0
Visibility: 10 mile(s):0
Sky conditions: mostly cloudy
Weather: rain
Precipitation last hour: 0.01 inches
Temperature: 68.7 F (20.4 C)
Dew Point: 68.7 F (20.4 C)
Relative Humidity: 100%
Pressure (altimeter): 29.78 in. Hg (1008 hPa)
ob: KRPJ 251015Z AUTO 11006KT 10SM RA SCT004 SCT030 BKN100 20/20 A2978 RMK AO2 P0001 T02040204 TSNO
Raw METAR:KRPJ 251015Z AUTO 11006KT 10SM RA SCT004 SCT030 BKN100 20/20 A2978 RMK AO2 P0001 T02040204 TSNO
cycle: 10
Back to top